Time;durP1;ratioP1;P1;durP2;ratioP2;P2;SDS_P1;SDS_P2;PMS_P1;PMS_P2;Temp;Humidity;BMP_temperature;BMP_pressure;BME280_temperature;BME280_humidity;BME280_pressure;Samples;Min_cycle;Max_cycle;Signal;HPM_P1;HPM_P2
2021/12/02 00:01:02;;;;;;;3.67;1.95;;;5.80;99.90;;;5.14;100.00;100322.72;4121942;28;20038;-74
2021/12/02 00:03:06;;;;;;;8.15;3.22;;;5.80;99.90;;;5.29;100.00;100329.25;4120656;28;20050;-74
2021/12/02 00:05:07;;;;;;;;;;;5.80;99.90;;;5.13;100.00;100325.50;4136618;28;20030;-74
2021/12/02 00:07:08;;;;;;;7.65;2.60;;;5.80;99.90;;;5.25;100.00;100325.28;4121599;28;19914;-74
2021/12/02 00:09:09;;;;;;;6.53;2.60;;;5.80;99.90;;;5.37;100.00;100333.84;4121958;28;20057;-74
2021/12/02 00:11:10;;;;;;;7.32;2.20;;;5.90;99.90;;;5.37;100.00;100324.22;4121894;28;20074;-74
2021/12/02 00:13:12;;;;;;;4.22;2.33;;;5.90;99.90;;;5.60;100.00;100324.81;4120492;28;20031;-74
2021/12/02 00:15:21;;;;;;;3.60;2.20;;;5.90;99.90;;;5.77;100.00;100332.00;4121642;28;20494;-74
2021/12/02 00:17:28;;;;;;;5.57;3.25;;;6.00;99.90;;;5.34;100.00;100321.88;4121814;28;20163;-73
2021/12/02 00:21:54;;;;;;;6.18;2.55;;;6.10;99.90;;;5.71;100.00;100339.56;4120613;28;20089;-74
2021/12/02 00:24:10;;;;;;;6.80;2.33;;;6.10;99.90;;;5.74;100.00;100347.97;4121838;28;20037;-74
2021/12/02 00:26:20;;;;;;;5.38;2.42;;;6.20;99.90;;;5.74;100.00;100363.66;4121546;28;20027;-74
2021/12/02 00:28:21;;;;;;;8.20;2.90;;;6.20;99.90;;;5.69;100.00;100357.19;4120324;28;20031;-74
2021/12/02 00:30:22;;;;;;;6.90;2.75;;;6.20;99.90;;;5.77;100.00;100357.34;4120406;28;20030;-74
2021/12/02 00:32:28;;;;;;;9.02;2.83;;;6.20;99.90;;;5.58;100.00;100348.47;4121469;28;20030;-74
2021/12/02 00:34:30;;;;;;;8.27;3.28;;;6.20;99.90;;;5.71;100.00;100352.63;4121260;28;20034;-74
2021/12/02 00:36:34;;;;;;;9.20;2.75;;;6.30;99.90;;;5.67;100.00;100340.81;4120179;28;20023;-74
2021/12/02 00:38:36;;;;;;;7.22;2.85;;;6.30;99.90;;;5.72;100.00;100356.91;4120377;28;20019;-74
2021/12/02 00:40:38;;;;;;;8.77;3.42;;;6.40;99.90;;;5.75;100.00;100354.03;4121423;28;20054;-74
2021/12/02 00:42:40;;;;;;;6.55;2.80;;;6.40;99.90;;;5.85;100.00;100361.00;4121297;28;20026;-74
2021/12/02 00:44:41;;;;;;;6.22;2.90;;;6.40;99.90;;;5.90;100.00;100352.72;4121375;28;20101;-74
2021/12/02 00:46:46;;;;;;;7.03;2.83;;;6.50;99.90;;;5.90;100.00;100368.44;4121318;28;20461;-74
2021/12/02 00:48:48;;;;;;;8.30;2.53;;;6.40;99.90;;;5.92;100.00;100375.19;4121469;28;20437;-74
2021/12/02 00:50:49;;;;;;;6.72;2.50;;;6.50;99.90;;;5.97;100.00;100374.78;4120977;28;20023;-74
2021/12/02 00:52:52;;;;;;;9.18;2.40;;;6.50;99.90;;;5.95;100.00;100371.44;4120092;28;20027;-74
2021/12/02 00:54:55;;;;;;;8.02;3.28;;;6.50;99.90;;;6.00;100.00;100380.56;4120061;28;20456;-74
2021/12/02 00:56:56;;;;;;;10.15;2.75;;;6.60;99.90;;;5.92;100.00;100379.56;4119962;28;20037;-74
2021/12/02 00:58:58;;;;;;;7.80;2.65;;;6.60;99.90;;;6.03;100.00;100396.00;4119903;28;20055;-74
2021/12/02 01:01:00;;;;;;;6.65;2.60;;;6.70;99.90;;;5.91;100.00;100391.84;4120046;28;20031;-74
2021/12/02 01:03:02;;;;;;;5.72;2.30;;;6.70;99.90;;;5.98;100.00;100402.59;4119833;28;20078;-74
2021/12/02 01:05:04;;;;;;;6.80;2.90;;;6.60;99.90;;;6.07;100.00;100407.03;4120971;28;20031;-74
2021/12/02 01:07:05;;;;;;;6.85;2.92;;;6.70;99.90;;;6.10;100.00;100404.97;4120850;28;20023;-74
2021/12/02 01:09:10;;;;;;;6.03;2.53;;;6.70;99.90;;;6.04;100.00;100410.75;4148980;28;20101;-74
2021/12/02 01:11:13;;;;;;;6.20;2.35;;;6.70;99.90;;;5.95;100.00;100402.88;4135328;28;20030;-74
2021/12/02 01:13:15;;;;;;;7.07;2.60;;;6.60;99.90;;;5.91;100.00;100406.75;4135541;28;20065;-74
2021/12/02 01:15:17;;;;;;;5.15;2.60;;;6.70;99.90;;;5.92;100.00;100403.13;4135486;28;20074;-74
2021/12/02 01:17:18;;;;;;;8.02;2.55;;;6.70;99.90;;;5.82;100.00;100400.50;4135852;28;20041;-74
2021/12/02 01:19:19;;;;;;;6.35;2.90;;;6.70;99.90;;;5.94;100.00;100398.63;4112097;28;20026;-74
2021/12/02 01:21:25;;;;;;;6.85;3.17;;;6.60;99.90;;;5.85;100.00;100402.88;4120474;28;20056;-74
2021/12/02 01:23:31;;;;;;;10.15;2.70;;;6.60;99.90;;;5.97;100.00;100400.97;4103607;28;20031;-74
2021/12/02 01:25:34;;;;;;;7.53;2.65;;;6.60;99.90;;;5.92;100.00;100409.22;4108189;28;20043;-74
2021/12/02 01:27:39;;;;;;;4.63;2.78;;;6.60;99.90;;;5.84;100.00;100416.88;4128128;28;20116;-74
2021/12/02 01:29:41;;;;;;;6.75;2.42;;;6.40;99.90;;;5.82;100.00;100424.03;4119586;28;20027;-74
2021/12/02 01:31:43;;;;;;;8.63;2.60;;;6.50;99.90;;;5.89;100.00;100427.78;4120503;28;20027;-74
2021/12/02 01:33:46;;;;;;;6.68;3.40;;;6.60;99.90;;;5.84;100.00;100422.09;4119489;28;20023;-74
2021/12/02 01:35:55;;;;;;;5.93;2.58;;;6.50;99.90;;;5.79;100.00;100420.84;4120381;28;20074;-74
2021/12/02 01:37:56;;;;;;;5.32;2.40;;;6.50;99.90;;;5.79;100.00;100424.31;4120509;28;20113;-74
2021/12/02 01:39:59;;;;;;;5.70;2.58;;;6.60;99.90;;;5.75;100.00;100417.69;4119449;28;20053;-74
2021/12/02 01:42:00;;;;;;;6.78;2.45;;;6.50;99.90;;;5.77;100.00;100443.69;4120545;28;20034;-75
2021/12/02 01:44:01;;;;;;;4.70;2.30;;;6.60;99.90;;;5.91;100.00;100440.78;4120504;28;20027;-74
2021/12/02 01:46:03;;;;;;;3.08;2.20;;;6.60;99.90;;;5.77;100.00;100436.69;4119201;28;20037;-74
2021/12/02 01:48:15;;;;;;;4.13;2.42;;;6.60;99.90;;;5.79;100.00;100449.66;4118952;28;20031;-74
2021/12/02 01:50:20;;;;;;;5.07;1.95;;;6.70;99.90;;;5.80;100.00;100452.13;4110554;28;20023;-74
2021/12/02 01:52:31;;;;;;;4.25;2.42;;;6.60;99.90;;;5.89;100.00;100461.00;4130350;28;20029;-74
2021/12/02 01:54:37;;;;;;;4.05;2.20;;;6.70;99.90;;;5.91;100.00;100469.56;4120519;28;20099;-74
2021/12/02 01:56:42;;;;;;;2.80;2.08;;;6.70;99.90;;;5.82;100.00;100470.31;4119368;28;20031;-73
2021/12/02 01:58:52;;;;;;;4.18;2.20;;;6.70;99.90;;;5.93;100.00;100462.41;4120185;28;20041;-74
2021/12/02 02:00:58;;;;;;;3.63;2.20;;;6.70;99.90;;;6.00;100.00;100484.47;4120018;28;20113;-74
2021/12/02 02:03:03;;;;;;;7.57;2.35;;;6.70;99.90;;;5.99;100.00;100485.44;4118838;28;20178;-74
2021/12/02 02:05:11;;;;;;;4.30;2.22;;;6.80;99.90;;;6.08;100.00;100482.00;4118780;28;20110;-74
2021/12/02 02:07:14;;;;;;;5.68;2.97;;;6.90;99.90;;;6.09;100.00;100499.38;4118846;28;20399;-75
2021/12/02 02:09:15;;;;;;;3.83;1.80;;;6.90;99.90;;;6.06;100.00;100499.66;4135029;28;20022;-74
2021/12/02 02:11:16;;;;;;;6.55;2.20;;;6.80;99.90;;;6.07;100.00;100485.56;4118928;28;20031;-74
2021/12/02 02:13:20;;;;;;;6.20;2.58;;;6.90;99.90;;;6.14;100.00;100499.81;4119959;28;20031;-74
2021/12/02 02:15:21;;;;;;;6.07;2.40;;;7.00;99.90;;;6.16;100.00;100503.09;4118828;28;20030;-74
2021/12/02 02:17:26;;;;;;;5.47;2.30;;;7.00;99.90;;;6.24;100.00;100511.16;4120170;28;20650;-74
2021/12/02 02:19:32;;;;;;;8.55;2.22;;;7.00;99.90;;;6.14;100.00;100502.44;4119701;28;20081;-74
2021/12/02 02:21:36;;;;;;;4.93;2.17;;;7.00;99.90;;;6.18;100.00;100508.22;4118755;28;20065;-74
2021/12/02 02:23:43;;;;;;;4.70;2.38;;;7.00;99.90;;;6.18;100.00;100518.72;4119899;28;20050;-74
2021/12/02 02:25:46;;;;;;;4.68;2.13;;;7.00;99.90;;;6.15;100.00;100519.81;4118847;28;20042;-74
2021/12/02 02:27:47;;;;;;;6.40;2.63;;;7.00;99.90;;;6.22;100.00;100528.75;4119870;28;20037;-74
2021/12/02 02:29:48;;;;;;;3.55;2.50;;;6.90;99.90;;;6.21;100.00;100534.16;4119963;28;20484;-74
2021/12/02 02:31:49;;;;;;;7.40;2.85;;;7.00;99.90;;;6.22;100.00;100539.25;4118582;28;20029;-74
2021/12/02 02:33:52;;;;;;;5.85;2.50;;;7.00;99.90;;;6.16;100.00;100536.31;4120057;28;20030;-74
2021/12/02 02:35:53;;;;;;;5.97;2.78;;;7.10;99.90;;;6.26;100.00;100560.75;4119519;28;20026;-74
2021/12/02 02:37:54;;;;;;;8.48;2.90;;;7.00;99.90;;;6.34;100.00;100566.16;4119184;28;20058;-74
2021/12/02 02:39:55;;;;;;;4.95;2.33;;;7.00;99.90;;;6.34;100.00;100560.91;4119692;28;20036;-74
2021/12/02 02:41:58;;;;;;;5.78;2.92;;;7.10;99.90;;;6.34;100.00;100569.63;4119969;28;20050;-74
2021/12/02 02:44:00;;;;;;;2.67;2.00;;;7.20;99.90;;;6.39;100.00;100579.72;4119684;28;20034;-74
2021/12/02 02:46:01;;;;;;;5.88;2.53;;;7.20;99.90;;;6.32;100.00;100571.53;4118419;28;20037;-74
2021/12/02 02:48:04;;;;;;;6.68;2.65;;;7.20;99.90;;;6.34;100.00;100571.41;4149981;28;20033;-74
2021/12/02 02:50:06;;;;;;;4.30;2.53;;;7.20;99.90;;;6.47;100.00;100577.25;4150567;28;20505;-74
2021/12/02 02:52:07;;;;;;;5.03;3.13;;;7.30;99.90;;;6.44;100.00;100575.72;4119741;28;20038;-74
2021/12/02 02:54:11;;;;;;;6.50;2.30;;;7.30;99.90;;;6.43;100.00;100587.16;4118336;28;20114;-74
2021/12/02 02:56:16;;;;;;;5.55;2.35;;;7.30;99.90;;;6.43;100.00;100581.91;4118555;28;20023;-74
2021/12/02 03:00:49;;;;;;;6.45;3.35;;;7.40;99.90;;;6.58;100.00;100583.19;4118807;28;20430;-74
2021/12/02 03:07:25;;;;;;;6.50;3.70;;;7.20;99.90;;;6.44;100.00;100598.47;4118523;28;20149;-75
2021/12/02 03:10:17;;;;;;;6.55;2.67;;;7.20;99.90;;;6.32;100.00;100597.75;4133259;28;20034;-74
2021/12/02 03:11:52;;;;;;;9.80;2.40;;;7.10;99.90;;;6.29;100.00;100592.75;4118092;28;20043;-74
2021/12/02 03:13:55;;;;;;;3.88;2.20;;;7.10;99.90;;;6.28;100.00;100627.78;4118568;28;20030;-74
2021/12/02 03:18:16;;;;;;;7.72;1.90;;;6.90;99.90;;;6.33;100.00;100622.94;4119607;28;20461;-74
2021/12/02 03:20:17;;;;;;;5.15;2.15;;;7.00;99.90;;;6.31;100.00;100629.28;4119155;28;20027;-74
2021/12/02 03:22:18;;;;;;;6.10;2.88;;;7.00;99.90;;;6.35;100.00;100638.56;4119434;28;20417;-74
2021/12/02 03:24:20;;;;;;;5.72;2.10;;;7.00;99.90;;;6.30;100.00;100632.88;4119417;28;20037;-74
2021/12/02 03:26:22;;;;;;;4.18;2.35;;;7.00;99.90;;;6.28;100.00;100633.00;4118310;28;20426;-74
2021/12/02 03:28:23;;;;;;;4.57;1.80;;;7.00;99.90;;;6.25;100.00;100628.03;4118136;28;20086;-74
2021/12/02 03:30:24;;;;;;;5.75;2.38;;;6.80;99.90;;;6.30;100.00;100653.84;4119525;28;20034;-74
2021/12/02 03:32:25;;;;;;;8.45;2.65;;;6.90;99.90;;;6.30;99.73;100646.78;4119472;28;20506;-75
2021/12/02 03:34:26;;;;;;;5.40;3.08;;;6.80;99.90;;;6.25;99.68;100648.97;4117928;28;20031;-75
2021/12/02 03:36:28;;;;;;;7.97;2.85;;;6.80;99.90;;;6.23;99.40;100655.31;4119485;28;20030;-74
2021/12/02 03:38:28;;;;;;;8.63;2.70;;;6.70;99.90;;;6.13;99.18;100653.47;4119424;28;20082;-74
2021/12/02 03:40:29;;;;;;;6.03;2.70;;;6.70;99.90;;;6.10;99.05;100668.63;4119434;28;20085;-75
2021/12/02 03:42:31;;;;;;;5.10;2.78;;;6.70;99.90;;;6.11;100.00;100655.41;4119301;28;20031;-74
2021/12/02 03:44:32;;;;;;;4.88;2.60;;;6.70;99.90;;;6.13;99.44;100669.19;4118133;28;20035;-74
2021/12/02 03:46:34;;;;;;;8.20;2.58;;;6.70;99.90;;;6.06;99.87;100667.22;4134338;28;20092;-75
2021/12/02 03:48:38;;;;;;;5.13;2.22;;;6.60;99.90;;;6.11;100.00;100675.53;4120531;28;20035;-74
2021/12/02 03:50:39;;;;;;;5.97;2.30;;;6.60;99.90;;;5.98;100.00;100680.94;4121969;28;20027;-74
2021/12/02 03:52:40;;;;;;;6.72;2.75;;;6.60;99.90;;;5.97;100.00;100681.09;4121006;28;20027;-74
2021/12/02 03:54:41;;;;;;;9.90;2.88;;;6.50;99.90;;;5.97;100.00;100668.81;4122284;28;20066;-74
2021/12/02 03:56:42;;;;;;;6.13;2.50;;;6.50;99.90;;;6.00;100.00;100684.25;4122195;28;20054;-75
2021/12/02 03:58:45;;;;;;;6.38;2.38;;;6.50;99.90;;;5.97;100.00;100684.50;4122139;28;20031;-74
2021/12/02 04:00:46;;;;;;;3.85;2.45;;;6.40;99.90;;;5.86;100.00;100697.69;4122034;28;20057;-74
2021/12/02 04:02:46;;;;;;;6.95;2.70;;;6.40;99.90;;;5.83;100.00;100702.28;4122060;28;20050;-74
2021/12/02 04:04:47;;;;;;;7.13;2.95;;;6.40;99.90;;;5.78;100.00;100694.00;4121900;28;20475;-74
2021/12/02 04:06:48;;;;;;;4.80;2.33;;;6.40;99.90;;;5.80;100.00;100708.63;4136784;28;20030;-74
2021/12/02 04:09:10;;;;;;;4.93;2.13;;;6.30;99.90;;;5.78;100.00;100702.69;4120119;28;20459;-74
2021/12/02 04:11:41;;;;;;;10.25;3.28;;;6.30;99.90;;;5.76;100.00;100706.41;4123532;28;20022;-73
2021/12/02 04:13:41;;;;;;;4.15;2.58;;;6.30;99.90;;;5.73;100.00;100717.94;4121690;28;20031;-74
2021/12/02 04:15:45;;;;;;;5.80;3.05;;;6.20;99.90;;;5.81;100.00;100712.91;4121973;28;20026;-74
2021/12/02 04:17:46;;;;;;;7.20;2.70;;;6.20;99.90;;;5.74;100.00;100713.53;4121856;28;20027;-74
2021/12/02 04:19:47;;;;;;;3.92;3.15;;;6.20;99.90;;;5.73;100.00;100723.19;4121583;28;20038;-74
2021/12/02 04:21:48;;;;;;;9.20;3.13;;;6.20;99.90;;;5.67;100.00;100728.91;4136491;28;20030;-74
2021/12/02 04:23:49;;;;;;;5.72;2.80;;;6.10;99.90;;;5.71;100.00;100732.94;4122040;28;20031;-75
2021/12/02 04:25:50;;;;;;;5.82;2.60;;;6.20;99.90;;;5.69;100.00;100731.41;4121802;28;20170;-74
2021/12/02 04:27:53;;;;;;;5.40;2.47;;;6.10;99.90;;;5.61;100.00;100728.56;4120484;28;20063;-74
2021/12/02 04:29:54;;;;;;;9.35;2.80;;;6.10;99.90;;;5.55;100.00;100738.56;4120432;28;20037;-74
2021/12/02 04:31:55;;;;;;;5.13;2.58;;;6.10;99.90;;;5.63;100.00;100751.03;4136615;28;20026;-74
2021/12/02 04:33:56;;;;;;;6.75;2.50;;;6.10;99.90;;;5.67;100.00;100752.47;4136571;28;20542;-74
2021/12/02 04:35:59;;;;;;;10.23;3.65;;;6.10;99.90;;;5.65;100.00;100753.53;4121294;28;20106;-74
2021/12/02 04:38:00;;;;;;;4.05;2.67;;;6.00;99.90;;;5.61;100.00;100752.13;4120338;28;20027;-74
2021/12/02 04:40:01;;;;;;;6.10;2.80;;;5.80;99.90;;;5.65;100.00;100758.75;4120400;28;20039;-74
2021/12/02 04:42:03;;;;;;;3.42;1.95;;;6.00;99.90;;;5.52;100.00;100748.47;4136479;28;20083;-74
2021/12/02 04:44:04;;;;;;;14.50;3.28;;;6.10;99.90;;;5.55;100.00;100756.06;4121519;28;20038;-74
2021/12/02 04:46:05;;;;;;;7.57;3.38;;;6.00;99.90;;;5.52;100.00;100761.56;4120211;28;20034;-74
2021/12/02 04:48:07;;;;;;;7.15;2.97;;;6.00;99.90;;;5.45;100.00;100750.75;4121518;28;20042;-74
2021/12/02 04:50:09;;;;;;;12.07;3.90;;;5.90;99.90;;;5.45;100.00;100750.75;4121235;28;20441;-74
2021/12/02 04:52:11;;;;;;;4.70;2.72;;;6.00;99.90;;;5.51;100.00;100755.47;4120203;28;20023;-74
2021/12/02 04:54:12;;;;;;;7.03;2.80;;;5.90;99.90;;;5.34;100.00;100769.09;4120080;28;20564;-74
2021/12/02 04:56:12;;;;;;;7.38;2.92;;;5.90;99.90;;;5.39;100.00;100759.09;4136384;28;20034;-74
2021/12/02 04:58:13;;;;;;;4.57;2.35;;;5.90;99.90;;;5.38;100.00;100777.50;4120173;28;20094;-75
2021/12/02 05:00:16;;;;;;;6.43;3.00;;;5.80;99.90;;;5.44;100.00;100763.94;4120365;28;20136;-74
2021/12/02 05:02:17;;;;;;;6.65;3.05;;;5.90;99.90;;;5.39;100.00;100766.09;4121023;28;20058;-74
2021/12/02 05:04:17;;;;;;;6.82;2.85;;;5.80;99.90;;;5.25;100.00;100779.44;4121000;28;20124;-74
2021/12/02 05:06:18;;;;;;;9.90;3.55;;;5.80;99.90;;;5.25;100.00;100779.44;4119980;28;20031;-74
2021/12/02 05:08:19;;;;;;;6.40;3.05;;;5.70;99.90;;;5.43;100.00;100783.22;4120915;28;20438;-74
2021/12/02 05:10:21;;;;;;;7.72;2.80;;;5.70;99.90;;;5.42;100.00;100777.16;4121048;28;20031;-75
2021/12/02 05:12:22;;;;;;;8.73;3.92;;;5.70;99.90;;;5.40;99.98;100778.22;4119930;28;20038;-74
2021/12/02 05:14:23;;;;;;;5.28;2.72;;;5.80;99.90;;;5.41;99.16;100778.09;4121182;28;20398;-74
2021/12/02 05:16:24;;;;;;;4.55;2.40;;;5.70;99.90;;;5.40;100.00;100783.47;4121008;28;20085;-74
2021/12/02 05:18:25;;;;;;;8.32;2.45;;;5.70;99.90;;;5.33;100.00;100787.50;4120975;28;20027;-74
2021/12/02 05:20:26;;;;;;;8.63;4.18;;;5.70;99.90;;;5.35;100.00;100801.28;4120757;28;20117;-75
2021/12/02 05:22:27;;;;;;;10.70;3.45;;;5.70;99.90;;;5.30;99.48;100804.28;4120860;28;20026;-74
2021/12/02 05:24:28;;;;;;;3.90;1.95;;;5.70;99.90;;;5.18;100.00;100800.00;4120888;28;20035;-74
2021/12/02 05:26:29;;;;;;;10.38;3.42;;;5.70;99.90;;;5.21;99.51;100812.84;4120919;28;20027;-74
2021/12/02 05:28:30;;;;;;;10.50;3.25;;;5.60;99.90;;;5.15;99.73;100809.88;4119616;28;20070;-75
2021/12/02 05:30:31;;;;;;;7.05;2.53;;;5.60;99.90;;;5.16;99.65;100796.69;4119734;28;20105;-75
2021/12/02 05:32:32;;;;;;;5.28;2.55;;;5.60;99.90;;;5.04;100.00;100810.72;4135716;28;20034;-75
2021/12/02 05:34:34;;;;;;;10.05;2.78;;;5.50;99.90;;;5.02;100.00;100804.75;4119354;28;20074;-74
2021/12/02 05:36:35;;;;;;;6.60;3.03;;;5.50;99.90;;;5.10;100.00;100810.25;4120602;28;20027;-74
2021/12/02 05:38:36;;;;;;;13.20;2.90;;;5.50;99.90;;;5.09;98.99;100823.41;4119623;28;20110;-74
2021/12/02 05:40:37;;;;;;;8.00;2.47;;;5.50;99.90;;;5.03;100.00;100822.09;4135585;28;20030;-74
2021/12/02 05:42:38;;;;;;;9.35;3.40;;;5.50;99.90;;;5.15;98.91;100825.56;4120599;28;20061;-74
2021/12/02 05:44:40;;;;;;;5.55;2.70;;;5.50;99.90;;;5.08;100.00;100824.38;4120418;28;20034;-74
2021/12/02 05:46:41;;;;;;;7.03;2.70;;;5.50;99.90;;;5.11;99.60;100838.03;4120590;28;20023;-74
2021/12/02 05:48:42;;;;;;;8.23;2.33;;;5.50;99.90;;;5.07;99.72;100843.63;4120344;28;20402;-74
2021/12/02 05:50:43;;;;;;;7.07;2.17;;;5.50;99.90;;;4.99;98.68;100831.13;4120157;28;20113;-74
2021/12/02 05:52:44;;;;;;;7.07;2.90;;;5.40;99.90;;;4.98;99.32;100837.31;4119133;28;20502;-74
2021/12/02 05:54:45;;;;;;;4.95;2.47;;;5.30;99.90;;;5.02;98.93;100826.50;4135415;28;20022;-74
2021/12/02 05:56:46;;;;;;;6.30;2.50;;;5.30;99.90;;;5.00;99.33;100836.25;4120415;28;20034;-74
2021/12/02 05:58:47;;;;;;;8.15;3.45;;;5.30;99.90;;;4.93;100.00;100844.66;4119004;28;20090;-74
2021/12/02 06:00:48;;;;;;;8.48;2.20;;;5.30;99.90;;;4.92;100.00;100843.03;4135068;28;20089;-74
2021/12/02 06:02:49;;;;;;;6.80;2.00;;;5.30;99.90;;;5.00;98.52;100833.63;4120179;28;20046;-74
2021/12/02 06:04:53;;;;;;;6.80;2.53;;;5.20;99.90;;;4.95;98.48;100840.19;4120168;28;20062;-74
2021/12/02 06:06:54;;;;;;;4.05;2.08;;;5.20;99.90;;;5.00;98.43;100843.25;4118878;28;20113;-74
2021/12/02 06:08:54;;;;;;;7.00;2.63;;;5.20;99.90;;;4.86;98.68;100846.94;4134788;28;20030;-75
2021/12/02 06:10:56;;;;;;;5.53;2.53;;;5.10;99.90;;;4.78;99.13;100849.28;4139567;28;20421;-74
2021/12/02 06:12:57;;;;;;;4.88;2.75;;;5.20;99.90;;;4.83;99.98;100857.63;4120057;28;20031;-74
2021/12/02 06:14:58;;;;;;;5.47;2.45;;;5.10;99.90;;;4.69;100.00;100844.75;4119971;28;20521;-74
2021/12/02 06:16:59;;;;;;;8.95;3.13;;;5.10;99.90;;;4.76;99.39;100853.81;4119916;28;20034;-75
2021/12/02 06:19:00;;;;;;;6.45;3.15;;;5.10;99.90;;;4.75;100.00;100864.38;4118770;28;20027;-74
2021/12/02 06:21:00;;;;;;;9.88;2.35;;;5.10;99.90;;;4.72;100.00;100865.44;4141933;28;20041;-74
2021/12/02 06:23:01;;;;;;;7.38;2.30;;;5.00;99.90;;;4.73;99.06;100856.66;4119944;28;20027;-74
2021/12/02 06:25:43;;;;;;;5.60;2.63;;;5.00;99.90;;;4.67;99.62;100864.94;4118609;28;20038;-75
2021/12/02 06:27:25;;;;;;;3.55;2.10;;;5.00;99.90;;;4.69;99.99;100875.31;4118808;28;20031;-74
2021/12/02 06:29:26;;;;;;;4.63;2.55;;;5.00;99.90;;;4.81;98.78;100875.19;4119932;28;20470;-75
2021/12/02 06:31:27;;;;;;;5.65;2.50;;;5.00;99.90;;;4.57;99.06;100881.44;4118547;28;20106;-75
2021/12/02 06:33:32;;;;;;;8.07;2.70;;;5.00;99.90;;;4.63;98.32;100879.19;4119817;28;20038;-74
2021/12/02 06:35:33;;;;;;;6.70;2.90;;;5.00;99.90;;;4.90;97.56;100881.50;4119540;28;20042;-74
2021/12/02 06:37:35;;;;;;;4.40;2.50;;;5.00;99.90;;;4.62;97.92;100894.97;4119690;28;20097;-74
2021/12/02 06:39:36;;;;;;;7.15;3.08;;;5.00;99.90;;;4.81;97.42;100879.56;4119565;28;20030;-74
2021/12/02 06:41:37;;;;;;;5.15;2.70;;;5.10;99.90;;;4.90;96.58;100894.56;4119776;28;20042;-75
2021/12/02 06:43:38;;;;;;;5.85;2.40;;;5.10;99.90;;;4.89;96.20;100893.75;4118534;28;20057;-74
2021/12/02 06:45:39;;;;;;;6.35;2.88;;;5.20;99.90;;;4.90;95.46;100902.41;4119363;28;20037;-75
2021/12/02 06:47:41;;;;;;;7.50;2.67;;;5.10;99.90;;;4.83;96.41;100906.44;4118305;28;20038;-75
2021/12/02 06:49:42;;;;;;;8.85;3.75;;;5.10;99.90;;;4.77;96.01;100907.75;4134254;28;20094;-75
2021/12/02 06:51:43;;;;;;;5.28;2.78;;;5.10;99.90;;;4.87;95.64;100915.69;4118486;28;20063;-75
2021/12/02 06:53:44;;;;;;;5.57;2.70;;;5.10;99.90;;;4.76;95.83;100916.53;4119512;28;20031;-74
2021/12/02 06:55:45;;;;;;;10.10;3.30;;;5.10;99.90;;;4.79;96.02;100923.28;4119508;28;20026;-74
2021/12/02 06:57:47;;;;;;;5.72;2.88;;;5.10;99.90;;;4.77;96.51;100930.44;4119669;28;20066;-74
2021/12/02 06:59:48;;;;;;;6.63;2.72;;;5.10;99.90;;;4.77;95.71;100930.44;4119614;28;20057;-74
2021/12/02 07:01:49;;;;;;;7.07;3.00;;;5.30;99.90;;;4.78;95.80;100939.94;4118383;28;20031;-74
2021/12/02 07:03:50;;;;;;;4.45;2.63;;;5.10;99.90;;;4.54;97.20;100941.75;4121088;28;20066;-74
2021/12/02 07:05:51;;;;;;;8.95;2.88;;;5.10;99.90;;;4.46;97.95;100937.06;4120245;28;20026;-74
2021/12/02 07:07:52;;;;;;;5.82;2.67;;;5.00;99.90;;;4.82;96.36;100955.25;4120369;28;20029;-74
2021/12/02 07:09:53;;;;;;;8.27;3.50;;;5.00;99.90;;;4.89;95.69;100956.47;4135346;28;20050;-74
2021/12/02 07:11:54;;;;;;;5.70;3.00;;;5.10;99.90;;;4.70;96.84;100960.56;4120377;28;20031;-74
2021/12/02 07:14:00;;;;;;;7.50;3.00;;;5.00;99.90;;;4.68;96.76;100952.84;4120530;28;20034;-74
2021/12/02 07:16:02;;;;;;;5.68;2.65;;;5.00;99.90;;;4.78;96.24;100958.22;4120452;28;20019;-74
2021/12/02 07:18:12;;;;;;;6.97;2.40;;;5.00;99.90;;;4.70;96.51;100950.09;4119516;28;20043;-74
2021/12/02 07:20:16;;;;;;;6.50;3.00;;;5.00;99.90;;;4.67;96.40;100963.41;4133873;28;20056;-74
2021/12/02 07:22:17;;;;;;;8.27;2.92;;;5.10;99.90;;;4.56;96.74;100958.13;4119288;28;20031;-74
2021/12/02 07:24:19;;;;;;;4.97;3.05;;;5.00;99.90;;;4.58;96.75;100957.06;4137704;28;20027;-74
2021/12/02 07:26:20;;;;;;;5.47;2.80;;;5.00;99.90;;;4.55;97.63;100954.69;4138371;28;20038;-74
2021/12/02 07:28:21;;;;;;;7.28;3.58;;;5.00;99.90;;;4.43;97.72;100943.34;4152682;28;20034;-75
2021/12/02 07:30:22;;;;;;;4.55;2.72;;;5.00;99.90;;;4.32;97.77;100950.31;4123602;28;20489;-74
2021/12/02 07:32:41;;;;;;;6.90;3.75;;;4.90;99.90;;;4.46;97.91;100947.53;4122247;28;20022;-74
2021/12/02 07:34:46;;;;;;;9.88;3.97;;;4.90;99.90;;;4.51;97.85;100945.41;4122003;28;20459;-74
2021/12/02 07:36:49;;;;;;;5.47;2.85;;;4.90;99.90;;;4.48;97.38;100954.28;4122247;28;20076;-74
2021/12/02 07:38:51;;;;;;;7.78;2.65;;;4.80;99.90;;;4.48;98.13;100954.28;4122362;28;20031;-74
2021/12/02 07:40:52;;;;;;;6.95;3.78;;;4.90;99.90;;;4.52;97.23;100952.28;4121944;28;20408;-74
2021/12/02 07:42:54;;;;;;;6.07;3.20;;;4.90;99.90;;;4.58;97.33;100953.63;4121142;28;20119;-75
2021/12/02 07:44:55;;;;;;;8.15;3.10;;;4.90;99.90;;;4.52;97.38;100956.69;4121593;28;20085;-75
2021/12/02 07:46:58;;;;;;;7.43;3.30;;;4.90;99.90;;;4.51;97.14;100973.31;4120968;28;20042;-74
2021/12/02 07:48:59;;;;;;;9.32;3.38;;;4.90;99.90;;;4.47;97.03;100968.31;4136512;28;20062;-74
2021/12/02 07:51:06;;;;;;;7.18;3.45;;;4.80;99.90;;;4.52;97.40;100969.75;4121681;28;20105;-74
2021/12/02 07:53:08;;;;;;;4.13;3.00;;;4.90;99.90;;;4.51;96.38;100984.56;4121214;28;20086;-74
2021/12/02 07:55:11;;;;;;;5.97;2.72;;;4.90;99.90;;;4.48;96.25;100985.63;4121142;28;20486;-74
2021/12/02 07:57:15;;;;;;;7.78;3.67;;;4.90;99.90;;;4.48;97.14;100976.97;4122160;28;20057;-74
2021/12/02 07:59:20;;;;;;;8.00;2.97;;;4.90;99.90;;;4.34;97.11;100982.34;4120659;28;20031;-74
2021/12/02 08:01:21;;;;;;;5.38;3.17;;;4.80;99.90;;;4.45;97.33;100987.63;4137048;28;20034;-74
2021/12/02 08:03:22;;;;;;;7.47;3.17;;;4.90;99.90;;;4.59;96.48;100991.88;4121880;28;20121;-74
2021/12/02 08:05:24;;;;;;;6.32;3.17;;;4.90;99.90;;;4.54;95.77;100997.41;4120628;28;20038;-74
2021/12/02 08:07:26;;;;;;;5.88;3.17;;;4.90;99.90;;;4.50;97.00;101003.00;4120628;28;20031;-75
2021/12/02 08:09:27;;;;;;;7.20;3.20;;;4.90;99.90;;;4.56;96.76;101005.16;4122039;28;20034;-75
2021/12/02 08:11:28;;;;;;;9.05;3.72;;;5.00;99.90;;;4.51;97.29;101015.13;4121994;28;20035;-74
2021/12/02 08:13:30;;;;;;;4.68;3.28;;;5.00;99.90;;;4.44;96.63;101007.72;4121796;28;20034;-74
2021/12/02 08:15:32;;;;;;;5.88;2.85;;;5.00;99.90;;;4.52;96.96;101006.31;4121788;28;20061;-75
2021/12/02 08:17:33;;;;;;;7.20;2.97;;;4.90;99.90;;;4.41;96.52;101007.94;4120715;28;20082;-74
2021/12/02 08:19:34;;;;;;;8.38;3.75;;;4.90;99.90;;;4.53;96.72;101010.59;4136579;28;20034;-75
2021/12/02 08:21:35;;;;;;;8.20;3.53;;;6.40;99.90;;;4.54;96.03;101026.16;4120492;28;20038;-74
2021/12/02 08:23:36;;;;;;;13.23;3.63;;;5.00;99.90;;;4.43;96.98;101021.72;4137443;28;20109;-74
2021/12/02 08:25:37;;;;;;;5.80;3.72;;;5.00;99.90;;;4.57;96.54;101012.06;4111145;28;20027;-74
2021/12/02 08:27:40;;;;;;;5.80;3.38;;;5.00;99.90;;;4.60;96.64;101011.84;4121675;28;20494;-74
2021/12/02 08:29:42;;;;;;;7.43;3.78;;;5.00;99.90;;;4.71;96.13;101017.94;4121688;28;20034;-74
2021/12/02 08:31:43;;;;;;;6.78;3.53;;;5.10;99.90;;;4.58;96.03;101024.16;4121502;28;20533;-74
2021/12/02 08:33:47;;;;;;;7.57;3.58;;;5.10;99.90;;;4.63;96.25;101024.69;4120465;28;20022;-74
2021/12/02 08:35:48;;;;;;;;;;;5.00;99.90;;;4.61;96.25;101031.78;4121850;28;20038;-74
2021/12/02 08:37:52;;;;;;;5.70;2.78;;;5.10;99.90;;;4.68;96.11;101015.56;4120436;28;19917;-74
2021/12/02 08:39:55;;;;;;;7.57;3.25;;;5.10;99.90;;;4.65;96.36;101020.16;4121481;28;20509;-74
2021/12/02 08:41:57;;;;;;;5.68;3.15;;;5.10;99.90;;;4.79;96.04;101027.81;4120437;28;20034;-75
2021/12/02 08:43:57;;;;;;;4.70;2.58;;;5.10;99.90;;;4.75;95.10;101023.78;4120279;28;20090;-75
2021/12/02 08:45:59;;;;;;;6.05;3.22;;;5.20;99.90;;;4.84;94.80;101016.09;4121602;28;20027;-74
2021/12/02 08:48:01;;;;;;;7.82;3.80;;;5.20;99.90;;;4.85;94.71;101016.91;4120104;28;20023;-74
2021/12/02 08:50:03;;;;;;;9.52;3.28;;;5.30;99.90;;;4.97;94.75;101021.25;4121332;28;20027;-75